Time;durP1;ratioP1;P1;durP2;ratioP2;P2;SDS_P1;SDS_P2;PMS_P1;PMS_P2;Temp;Humidity;BMP_temperature;BMP_pressure;BME280_temperature;BME280_humidity;BME280_pressure;Samples;Min_cycle;Max_cycle;Signal;HPM_P1;HPM_P2
2022/11/21 00:00:46;;;;;;;1999.90;999.90;;;;;;;2.56;100.00;97390.38;5100992;28;20131;-74
2022/11/21 00:03:12;;;;;;;1999.90;999.90;;;;;;;2.42;100.00;97395.38;5113257;28;20024;-74
2022/11/21 00:05:42;;;;;;;1999.90;999.90;;;;;;;2.15;100.00;97395.44;5112948;28;20024;-74
2022/11/21 00:08:13;;;;;;;1999.90;999.90;;;;;;;2.09;100.00;97401.03;5111484;28;20044;-74
2022/11/21 00:10:40;;;;;;;1999.90;999.90;;;;;;;2.07;100.00;97395.88;5112076;28;20544;-75
2022/11/21 00:13:07;;;;;;;1999.90;999.90;;;;;;;2.00;100.00;97392.59;5111865;28;20028;-75
2022/11/21 00:15:34;;;;;;;1999.90;999.90;;;;;;;1.92;100.00;97379.56;5111696;28;20096;-76
2022/11/21 00:18:02;;;;;;;1999.90;999.90;;;;;;;1.92;100.00;97378.72;5111871;28;20031;-75
2022/11/21 00:20:27;;;;;;;1999.90;999.90;;;;;;;1.92;100.00;97378.72;5111661;28;20482;-75
2022/11/21 00:22:53;;;;;;;1999.90;999.90;;;;;;;1.86;100.00;97367.09;5111745;28;20107;-74
2022/11/21 00:25:18;;;;;;;1999.90;999.90;;;;;;;1.93;100.00;97374.97;5112172;28;20051;-76
2022/11/21 00:27:43;;;;;;;1999.90;999.90;;;;;;;1.81;100.00;97368.94;5111664;28;20037;-76
2022/11/21 00:30:10;;;;;;;1999.90;999.90;;;;;;;1.81;100.00;97366.22;5111544;28;20031;-75
2022/11/21 00:32:35;;;;;;;1999.90;999.90;;;;;;;1.71;100.00;97372.31;5111189;28;20479;-75
2022/11/21 00:35:01;;;;;;;1999.90;999.90;;;;;;;1.68;100.00;97375.53;5111623;28;20026;-75
2022/11/21 00:37:26;;;;;;;1999.90;999.90;;;;;;;1.81;100.00;97375.13;5111435;28;20397;-74
2022/11/21 00:39:52;;;;;;;1999.90;999.90;;;;;;;1.85;100.00;97373.53;5111711;28;20698;-76
2022/11/21 00:42:17;;;;;;;1999.90;999.90;;;;;;;1.96;100.00;97383.38;5111466;28;20027;-75
2022/11/21 00:44:42;;;;;;;1999.90;999.90;;;;;;;1.95;100.00;97387.13;5111731;28;20462;-76
2022/11/21 00:47:08;;;;;;;1999.90;999.90;;;;;;;1.76;100.00;97380.44;5111429;28;20066;-75
2022/11/21 00:49:33;;;;;;;1999.90;999.90;;;;;;;1.58;100.00;97383.50;5111475;28;20537;-75
2022/11/21 00:51:59;;;;;;;1999.90;999.90;;;;;;;1.52;100.00;97381.81;5111473;28;20023;-75
2022/11/21 00:54:24;;;;;;;1999.90;999.90;;;;;;;1.48;100.00;97381.50;5111900;28;20035;-75
2022/11/21 00:56:50;;;;;;;1999.90;999.90;;;;;;;1.35;100.00;97376.47;5111122;28;20023;-75
2022/11/21 00:59:15;;;;;;;1999.90;999.90;;;;;;;1.33;100.00;97381.31;5111354;28;20032;-74
2022/11/21 01:01:40;;;;;;;1999.90;999.90;;;;;;;1.36;100.00;97380.81;5110993;28;20102;-74
2022/11/21 01:04:06;;;;;;;1999.90;999.90;;;;;;;1.40;100.00;97365.78;5111215;28;20055;-74
2022/11/21 01:06:31;;;;;;;1999.90;999.90;;;;;;;1.52;100.00;97376.41;5111015;28;20034;-75
2022/11/21 01:08:57;;;;;;;1999.90;999.90;;;;;;;1.59;100.00;97366.28;5110983;28;20050;-75
2022/11/21 01:11:22;;;;;;;1999.90;999.90;;;;;;;1.62;100.00;97360.38;5101977;28;20028;-75
2022/11/21 01:13:48;;;;;;;1999.90;999.90;;;;;;;1.70;100.00;97359.09;5091137;28;20031;-75
2022/11/21 01:16:16;;;;;;;1999.90;999.90;;;;;;;1.69;100.00;97358.31;5090896;28;20024;-74
2022/11/21 01:18:42;;;;;;;1999.90;999.90;;;;;;;1.50;100.00;97370.47;5090675;28;20032;-75
2022/11/21 01:21:12;;;;;;;1999.90;999.90;;;;;;;1.62;100.00;97368.47;5090619;28;20035;-75
2022/11/21 01:23:38;;;;;;;1999.90;999.90;;;;;;;1.59;100.00;97369.78;5090562;28;20028;-74
2022/11/21 01:26:10;;;;;;;1999.90;999.90;;;;;;;1.61;100.00;97369.50;5091006;28;20032;-74
2022/11/21 01:28:35;;;;;;;1999.90;999.90;;;;;;;1.63;100.00;97370.88;5090654;28;20162;-75
2022/11/21 01:31:11;;;;;;;1999.90;999.90;;;;;;;1.75;100.00;97368.06;5090756;28;20474;-74
2022/11/21 01:33:37;;;;;;;1999.90;999.90;;;;;;;1.93;100.00;97364.19;5090713;28;20048;-75
2022/11/21 01:36:20;;;;;;;1999.90;999.90;;;;;;;1.96;100.00;97369.06;5090601;28;20032;-75
2022/11/21 01:38:48;;;;;;;1999.90;999.90;;;;;;;1.89;100.00;97371.16;5090625;28;20366;-75
2022/11/21 01:41:16;;;;;;;1999.90;999.90;;;;;;;1.94;100.00;97369.31;5090533;28;20500;-75
2022/11/21 01:43:42;;;;;;;1999.90;999.90;;;;;;;2.01;100.00;97363.72;5094417;28;20028;-76
2022/11/21 01:46:07;;;;;;;1999.90;999.90;;;;;;;2.15;100.00;97360.38;5095400;28;20077;-76
2022/11/21 01:48:42;;;;;;;1999.90;999.90;;;;;;;2.01;100.00;97356.44;5094460;28;20055;-75
2022/11/21 01:51:10;;;;;;;1999.90;999.90;;;;;;;2.03;100.00;97351.63;5094407;28;20031;-74
2022/11/21 01:53:39;;;;;;;1999.90;999.90;;;;;;;2.15;100.00;97351.47;5094406;28;20036;-75
2022/11/21 01:56:05;;;;;;;1999.90;999.90;;;;;;;2.20;100.00;97342.56;5096440;28;20020;-79
2022/11/21 01:58:33;;;;;;;1999.90;999.90;;;;;;;2.30;100.00;97339.97;5097074;28;20020;-76
2022/11/21 02:01:00;;;;;;;1999.90;999.90;;;;;;;2.28;100.00;97328.63;5094674;28;20032;-75
2022/11/21 02:03:27;;;;;;;1999.90;999.90;;;;;;;2.44;100.00;97333.09;5094155;28;20032;-76
2022/11/21 02:05:54;;;;;;;1999.90;999.90;;;;;;;2.36;100.00;97331.66;5107397;28;20032;-73
2022/11/21 02:08:22;;;;;;;1999.90;999.90;;;;;;;2.45;100.00;97322.00;5114388;28;20150;-74
2022/11/21 02:11:09;;;;;;;1999.90;999.90;;;;;;;2.46;100.00;97317.44;5114465;28;20388;-74
2022/11/21 02:13:34;;;;;;;1999.90;999.90;;;;;;;2.52;100.00;97313.69;5114276;28;20027;-74
2022/11/21 02:16:01;;;;;;;1999.90;999.90;;;;;;;2.51;100.00;97312.06;5114400;28;20034;-73
2022/11/21 02:18:26;;;;;;;1999.90;999.90;;;;;;;2.50;100.00;97305.06;5114404;28;20019;-75
2022/11/21 02:20:59;;;;;;;1999.90;999.90;;;;;;;2.57;100.00;97306.44;5114290;28;20384;-75
2022/11/21 02:23:44;;;;;;;1999.90;999.90;;;;;;;2.60;100.00;97294.34;5095733;28;20055;-74
2022/11/21 02:26:09;;;;;;;1999.90;999.90;;;;;;;2.66;100.00;97287.88;5114285;28;20024;-74
2022/11/21 02:28:35;;;;;;;1999.90;999.90;;;;;;;2.68;100.00;97285.72;5114024;28;20047;-73
2022/11/21 02:31:00;;;;;;;1999.90;999.90;;;;;;;2.68;100.00;97291.13;5114128;28;20100;-73
2022/11/21 02:33:26;;;;;;;1999.90;999.90;;;;;;;2.68;100.00;97285.72;5114064;28;20172;-75
2022/11/21 02:35:58;;;;;;;1999.90;999.90;;;;;;;2.74;100.00;97276.59;5114001;28;20031;-74
2022/11/21 02:38:31;;;;;;;1999.90;999.90;;;;;;;2.82;100.00;97286.09;5113940;28;20388;-74
2022/11/21 02:41:04;;;;;;;1999.90;999.90;;;;;;;2.93;100.00;97288.56;5113969;28;20030;-75
2022/11/21 02:43:41;;;;;;;1999.90;999.90;;;;;;;3.08;100.00;97285.94;5113863;28;20019;-75
2022/11/21 02:46:06;;;;;;;1999.90;999.90;;;;;;;2.99;100.00;97286.69;5095412;28;20038;-74
2022/11/21 02:48:33;;;;;;;1999.90;999.90;;;;;;;2.95;100.00;97275.59;5113682;28;20028;-77
2022/11/21 02:50:59;;;;;;;1999.90;999.90;;;;;;;3.08;100.00;97279.69;5113595;28;20012;-75
2022/11/21 02:53:24;;;;;;;1999.90;999.90;;;;;;;3.09;100.00;97279.44;5113069;28;20042;-75
2022/11/21 02:55:49;;;;;;;1999.90;999.90;;;;;;;3.15;100.00;97283.81;5113494;28;20027;-74
2022/11/21 02:58:14;;;;;;;1999.90;999.90;;;;;;;3.12;100.00;97292.44;5113620;28;20023;-75
2022/11/21 03:00:41;;;;;;;1999.90;999.90;;;;;;;2.98;100.00;97283.16;5095724;28;20035;-74
2022/11/21 03:03:07;;;;;;;1999.90;999.90;;;;;;;2.97;100.00;97284.28;5092954;28;20027;-74
2022/11/21 03:05:32;;;;;;;1999.90;999.90;;;;;;;2.94;100.00;97274.00;5092936;28;20392;-74
2022/11/21 03:07:58;;;;;;;1999.90;999.90;;;;;;;3.04;100.00;97273.19;5092855;28;20044;-75
2022/11/21 03:10:23;;;;;;;1999.90;999.90;;;;;;;3.09;100.00;97265.13;5098806;28;20032;-75
2022/11/21 03:12:49;;;;;;;1999.90;999.90;;;;;;;3.01;100.00;97258.34;5113231;28;20020;-76
2022/11/21 03:15:15;;;;;;;1999.90;999.90;;;;;;;3.02;100.00;97267.25;5113170;28;20138;-75
2022/11/21 03:17:41;;;;;;;1999.90;999.90;;;;;;;2.95;100.00;97263.97;5113119;28;20031;-74
2022/11/21 03:20:08;;;;;;;1999.90;999.90;;;;;;;2.88;100.00;97256.13;5113315;28;20384;-75
2022/11/21 03:22:33;;;;;;;1999.90;999.90;;;;;;;2.88;100.00;97258.81;5113449;28;20028;-75
2022/11/21 03:24:59;;;;;;;1999.90;999.90;;;;;;;2.91;100.00;97258.31;5114651;28;20506;-75
2022/11/21 03:27:24;;;;;;;1999.90;999.90;;;;;;;2.98;100.00;97264.25;5078258;28;20484;-74
2022/11/21 03:29:50;;;;;;;1999.90;999.90;;;;;;;2.95;100.00;97259.41;5098491;28;20043;-74
2022/11/21 03:32:15;;;;;;;1999.90;999.90;;;;;;;2.99;100.00;97260.50;5112618;28;20951;-74
2022/11/21 03:34:40;;;;;;;1999.90;999.90;;;;;;;2.91;100.00;97263.72;5103338;28;20028;-75
2022/11/21 03:37:06;;;;;;;1999.90;999.90;;;;;;;2.89;100.00;97252.34;5092083;28;20070;-75
2022/11/21 03:39:31;;;;;;;1999.90;999.90;;;;;;;2.88;100.00;97258.81;5092149;28;20020;-75
2022/11/21 03:41:57;;;;;;;1999.90;999.90;;;;;;;2.83;100.00;97260.69;5091945;28;20024;-76
2022/11/21 03:44:22;;;;;;;1999.90;999.90;;;;;;;3.00;100.00;97253.22;5092220;28;20024;-76
2022/11/21 03:46:48;;;;;;;1999.90;999.90;;;;;;;2.99;100.00;97265.91;5100411;28;20038;-76
2022/11/21 03:49:15;;;;;;;1999.90;999.90;;;;;;;2.99;100.00;97273.19;5112154;28;20020;-75
2022/11/21 03:51:41;;;;;;;1999.90;999.90;;;;;;;3.02;100.00;97270.78;5110887;28;20423;-75
2022/11/21 03:54:06;;;;;;;1999.90;999.90;;;;;;;3.06;100.00;97271.88;5101524;28;20036;-76
2022/11/21 03:56:32;;;;;;;1999.90;999.90;;;;;;;3.09;100.00;97271.34;5108145;28;21004;-76
2022/11/21 03:58:58;;;;;;;1999.90;999.90;;;;;;;3.07;100.00;97267.28;5108976;28;20028;-75
2022/11/21 04:01:24;;;;;;;1999.90;999.90;;;;;;;3.11;100.00;97265.66;5112056;28;20023;-77
2022/11/21 04:03:50;;;;;;;1999.90;999.90;;;;;;;2.99;100.00;97251.56;5112337;28;20031;-76
2022/11/21 04:06:17;;;;;;;1999.90;999.90;;;;;;;2.99;100.00;97248.88;5113316;28;20036;-76
2022/11/21 04:08:43;;;;;;;1999.90;999.90;;;;;;;2.99;100.00;97243.47;5118231;28;20067;-75
2022/11/21 04:11:09;;;;;;;1999.90;999.90;;;;;;;2.91;100.00;97257.50;5112258;28;20495;-75
2022/11/21 04:13:34;;;;;;;1999.90;999.90;;;;;;;2.85;100.00;97258.56;5111964;28;20055;-74
2022/11/21 04:16:00;;;;;;;1999.90;999.90;;;;;;;2.81;100.00;97262.84;5111665;28;20023;-76
2022/11/21 04:18:25;;;;;;;1999.90;999.90;;;;;;;2.98;100.00;97266.97;5111822;28;20029;-75
2022/11/21 04:20:57;;;;;;;1999.90;999.90;;;;;;;3.08;100.00;97258.09;5111549;28;20034;-75
2022/11/21 04:23:23;;;;;;;1999.90;999.90;;;;;;;3.12;100.00;97273.53;5111631;28;20119;-75
2022/11/21 04:25:48;;;;;;;1999.90;999.90;;;;;;;3.14;100.00;97259.72;5093714;28;20181;-75
2022/11/21 04:28:13;;;;;;;1999.90;999.90;;;;;;;3.12;100.00;97260.00;5111644;28;20032;-76
2022/11/21 04:30:39;;;;;;;1999.90;999.90;;;;;;;3.21;100.00;97263.81;5111452;28;20024;-75
2022/11/21 04:33:04;;;;;;;1999.90;999.90;;;;;;;3.13;100.00;97250.81;5111359;28;20043;-77
2022/11/21 04:35:30;;;;;;;1999.90;999.90;;;;;;;3.10;100.00;97251.34;5111537;28;20086;-75
2022/11/21 04:37:55;;;;;;;1999.90;999.90;;;;;;;3.10;100.00;97254.03;5111306;28;20477;-77
2022/11/21 04:40:20;;;;;;;1999.90;999.90;;;;;;;3.01;100.00;97244.84;5110760;28;20093;-75
2022/11/21 04:42:47;;;;;;;1999.90;999.90;;;;;;;3.09;100.00;97262.44;5110211;28;20065;-76
2022/11/21 04:45:13;;;;;;;1999.90;999.90;;;;;;;3.10;100.00;97259.44;5110746;28;20027;-75
2022/11/21 04:47:40;;;;;;;1999.90;999.90;;;;;;;3.14;100.00;97257.03;5110287;28;20028;-75
2022/11/21 04:50:07;;;;;;;1999.90;999.90;;;;;;;3.11;100.00;97252.16;5110668;28;20045;-75
2022/11/21 04:52:34;;;;;;;1999.90;999.90;;;;;;;3.14;100.00;97246.22;5110624;28;20042;-75
2022/11/21 04:55:00;;;;;;;1999.90;999.90;;;;;;;3.05;100.00;97247.81;5111789;28;20111;-75
2022/11/21 04:57:28;;;;;;;1999.90;999.90;;;;;;;3.06;100.00;97250.28;5111095;28;20028;-76
2022/11/21 04:59:54;;;;;;;1999.90;999.90;;;;;;;3.03;100.00;97255.38;5110883;28;20034;-75
2022/11/21 05:02:20;;;;;;;1999.90;999.90;;;;;;;2.82;100.00;97257.16;5111132;28;20027;-76
2022/11/21 05:04:45;;;;;;;1999.90;999.90;;;;;;;2.76;100.00;97260.91;5111326;28;20023;-76
2022/11/21 05:07:11;;;;;;;1999.90;999.90;;;;;;;2.74;100.00;97249.59;5111143;28;20096;-75
2022/11/21 05:09:36;;;;;;;1999.90;999.90;;;;;;;2.66;100.00;97247.41;5111100;28;20034;-76
2022/11/21 05:14:45;;;;;;;1999.90;999.90;;;;;;;2.72;100.00;97250.94;5111288;28;20054;-75
2022/11/21 05:17:11;;;;;;;1999.90;999.90;;;;;;;2.66;100.00;97247.41;5093296;28;20484;-76
2022/11/21 05:19:36;;;;;;;1999.90;999.90;;;;;;;2.80;100.00;97264.72;5113206;28;20032;-76
2022/11/21 05:22:01;;;;;;;1999.90;999.90;;;;;;;2.85;100.00;97272.06;5113796;28;20020;-76
2022/11/21 05:24:27;;;;;;;1999.90;999.90;;;;;;;2.87;100.00;97278.81;5111059;28;20376;-76
2022/11/21 05:26:53;;;;;;;1999.90;999.90;;;;;;;2.97;100.00;97272.66;5110801;28;20439;-75
2022/11/21 05:29:18;;;;;;;1999.90;999.90;;;;;;;2.98;100.00;97275.06;5110760;28;20111;-74
2022/11/21 05:31:44;;;;;;;1999.90;999.90;;;;;;;2.92;100.00;97268.03;5092561;28;20031;-76
2022/11/21 05:34:09;;;;;;;1999.90;999.90;;;;;;;2.96;100.00;97288.03;5110521;28;20031;-75
2022/11/21 05:36:34;;;;;;;1999.90;999.90;;;;;;;2.85;100.00;97277.47;5110788;28;20041;-76
2022/11/21 05:39:00;;;;;;;1999.90;999.90;;;;;;;2.85;100.00;97280.16;5101059;28;20549;-76
2022/11/21 05:41:25;;;;;;;1999.90;999.90;;;;;;;2.91;100.00;97279.91;5106301;28;20384;-75
2022/11/21 05:43:50;;;;;;;1999.90;999.90;;;;;;;2.95;100.00;97285.59;5108046;28;20046;-74
2022/11/21 05:46:21;;;;;;;1999.90;999.90;;;;;;;2.92;100.00;97292.31;5090115;28;20040;-75
2022/11/21 05:48:47;;;;;;;1999.90;999.90;;;;;;;2.90;100.00;97294.50;5097256;28;20468;-74
2022/11/21 05:51:14;;;;;;;1999.90;999.90;;;;;;;2.96;100.00;97284.53;5110506;28;20020;-76
2022/11/21 05:53:39;;;;;;;1999.90;999.90;;;;;;;2.81;100.00;97289.84;5110515;28;20070;-76
2022/11/21 05:56:07;;;;;;;1999.90;999.90;;;;;;;2.75;100.00;97289.00;5110626;28;20073;-75
2022/11/21 05:58:32;;;;;;;1999.90;999.90;;;;;;;2.72;100.00;97287.63;5103610;28;20492;-76
2022/11/21 06:00:58;;;;;;;1999.90;999.90;;;;;;;2.75;100.00;97289.00;5098464;28;20033;-76
2022/11/21 06:03:29;;;;;;;1999.90;999.90;;;;;;;2.65;100.00;97291.66;5085686;28;20032;-75
2022/11/21 06:06:08;;;;;;;1999.90;999.90;;;;;;;2.78;100.00;97296.59;5111038;28;20055;-76
2022/11/21 06:08:36;;;;;;;1999.90;999.90;;;;;;;2.78;100.00;97293.06;5110936;28;20135;-76
2022/11/21 06:11:03;;;;;;;1999.90;999.90;;;;;;;2.78;100.00;97291.19;5110953;28;20096;-76
2022/11/21 06:13:29;;;;;;;1999.90;999.90;;;;;;;2.79;100.00;97287.41;5110532;28;20024;-76
2022/11/21 06:16:06;;;;;;;1999.90;999.90;;;;;;;2.74;100.00;97287.38;5096252;28;20031;-76
2022/11/21 06:18:37;;;;;;;1999.90;999.90;;;;;;;2.74;100.00;97287.38;5117143;28;20546;-76
2022/11/21 06:21:03;;;;;;;1999.90;999.90;;;;;;;2.67;100.00;97290.31;5099596;28;20038;-76
2022/11/21 06:23:29;;;;;;;1999.90;999.90;;;;;;;2.67;100.00;97289.50;5102005;28;20031;-76
2022/11/21 06:26:00;;;;;;;1999.90;999.90;;;;;;;2.71;100.00;97279.81;5099799;28;20160;-75
2022/11/21 06:28:29;;;;;;;1999.90;999.90;;;;;;;2.58;100.00;97274.88;5100252;28;20742;-76
2022/11/21 06:30:54;;;;;;;1999.90;999.90;;;;;;;2.68;100.00;97269.53;5100068;28;20020;-77
2022/11/21 06:33:20;;;;;;;1999.90;999.90;;;;;;;2.69;100.00;97265.75;5099031;28;20380;-75
2022/11/21 06:35:46;;;;;;;1999.90;999.90;;;;;;;2.72;100.00;97265.25;5083787;28;20127;-77
2022/11/21 06:38:17;;;;;;;1999.90;999.90;;;;;;;2.78;100.00;97253.41;5103773;28;20528;-77
2022/11/21 06:40:43;;;;;;;1999.90;999.90;;;;;;;2.75;100.00;97253.91;5098511;28;20115;-76
2022/11/21 06:43:08;;;;;;;1999.90;999.90;;;;;;;2.72;100.00;97243.66;5114188;28;20157;-76
2022/11/21 06:45:33;;;;;;;1999.90;999.90;;;;;;;2.77;100.00;97253.63;5113446;28;20028;-76
2022/11/21 06:48:02;;;;;;;1999.90;999.90;;;;;;;2.82;100.00;97259.88;5105223;28;20065;-76
2022/11/21 06:50:29;;;;;;;1999.90;999.90;;;;;;;2.80;100.00;97267.44;5093026;28;20655;-78
2022/11/21 06:52:57;;;;;;;1999.90;999.90;;;;;;;2.88;100.00;97269.63;5108474;28;20480;-77
2022/11/21 06:55:24;;;;;;;1999.90;999.90;;;;;;;2.87;100.00;97257.22;5113645;28;20030;-76
2022/11/21 06:57:49;;;;;;;1999.90;999.90;;;;;;;2.82;100.00;97256.38;5109176;28;20035;-75
2022/11/21 07:00:15;;;;;;;1999.90;999.90;;;;;;;2.89;100.00;97254.22;5112872;28;20027;-76
2022/11/21 07:02:41;;;;;;;1999.90;999.90;;;;;;;2.82;100.00;97254.47;5111988;28;20026;-76
2022/11/21 07:05:06;;;;;;;1999.90;999.90;;;;;;;2.82;100.00;97259.88;5112490;28;20392;-77
2022/11/21 07:07:32;;;;;;;1999.90;999.90;;;;;;;2.94;100.00;97262.38;5107622;28;20046;-76
2022/11/21 07:09:57;;;;;;;1999.90;999.90;;;;;;;3.06;100.00;97262.97;5100120;28;20117;-76
2022/11/21 07:15:07;;;;;;;1999.90;999.90;;;;;;;3.22;100.00;97273.56;5106014;28;20051;-77
2022/11/21 07:17:32;;;;;;;1999.90;999.90;;;;;;;3.25;100.00;97274.91;5103858;28;20024;-75
2022/11/21 07:19:58;;;;;;;1999.90;999.90;;;;;;;3.34;100.00;97286.84;5107245;28;20470;-76
2022/11/21 07:22:23;;;;;;;1999.90;999.90;;;;;;;3.45;100.00;97295.75;5102579;28;20019;-76
2022/11/21 07:24:48;;;;;;;1999.90;999.90;;;;;;;3.46;100.00;97303.63;5100770;28;20024;-76
2022/11/21 07:27:14;;;;;;;1999.90;999.90;;;;;;;3.45;100.00;97301.16;5103010;28;20122;-76
2022/11/21 07:29:39;;;;;;;1999.90;999.90;;;;;;;3.49;100.00;97300.38;5103262;28;20055;-75
2022/11/21 07:32:04;;;;;;;1999.90;999.90;;;;;;;3.53;100.00;97297.97;5108847;28;20389;-77
2022/11/21 07:34:30;;;;;;;1999.90;999.90;;;;;;;3.59;100.00;97291.50;5107477;28;20076;-77
2022/11/21 07:36:55;;;;;;;1999.90;999.90;;;;;;;3.55;100.00;97307.44;5110478;28;20055;-76
2022/11/21 07:39:20;;;;;;;1999.90;999.90;;;;;;;3.52;100.00;97312.56;5112633;28;20031;-76
2022/11/21 07:41:45;;;;;;;1999.90;999.90;;;;;;;3.49;100.00;97307.69;5110191;28;20058;-76
2022/11/21 07:44:11;;;;;;;1999.90;999.90;;;;;;;3.56;100.00;97309.06;5111813;28;20016;-76
2022/11/21 07:46:36;;;;;;;1999.90;999.90;;;;;;;3.56;100.00;97302.84;5111570;28;20059;-77
2022/11/21 07:49:01;;;;;;;1999.90;999.90;;;;;;;3.52;100.00;97291.75;5111787;28;20068;-75
2022/11/21 07:51:27;;;;;;;1999.90;999.90;;;;;;;3.58;100.00;97295.25;5111562;28;20058;-77
2022/11/21 07:53:52;;;;;;;1999.90;999.90;;;;;;;3.59;100.00;97299.59;5111991;28;20080;-76
2022/11/21 07:56:18;;;;;;;1999.90;999.90;;;;;;;3.61;100.00;97302.84;5112340;28;20023;-76
2022/11/21 07:58:43;;;;;;;1999.90;999.90;;;;;;;3.71;100.00;97308.28;5112258;28;20472;-76
2022/11/21 08:01:08;;;;;;;1999.90;999.90;;;;;;;3.81;100.00;97294.78;5111938;28;20027;-76
2022/11/21 08:03:34;;;;;;;1999.90;999.90;;;;;;;3.76;100.00;97298.28;5112002;28;20821;-76
2022/11/21 08:06:03;;;;;;;1999.90;999.90;;;;;;;3.82;100.00;97296.41;5111784;28;20068;-75
2022/11/21 08:08:29;;;;;;;1999.90;999.90;;;;;;;3.77;100.00;97288.28;5093493;28;20427;-75
2022/11/21 08:10:54;;;;;;;1999.90;999.90;;;;;;;3.59;100.00;97278.78;5111694;28;20029;-76
2022/11/21 08:13:20;;;;;;;1999.90;999.90;;;;;;;3.73;100.00;97273.66;5102058;28;20039;-76
2022/11/21 08:15:45;;;;;;;1999.90;999.90;;;;;;;3.66;100.00;97267.72;5090785;28;20473;-76
2022/11/21 08:18:13;;;;;;;1999.90;999.90;;;;;;;3.72;100.00;97266.66;5091156;28;20049;-76
2022/11/21 08:20:40;;;;;;;1999.90;999.90;;;;;;;3.77;100.00;97270.16;5091343;28;20400;-75
2022/11/21 08:23:06;;;;;;;1999.90;999.90;;;;;;;3.83;100.00;97262.03;5091468;28;20024;-76
2022/11/21 08:25:33;;;;;;;1999.90;999.90;;;;;;;3.85;100.00;97262.59;5093057;28;20024;-84
2022/11/21 08:27:58;;;;;;;1999.90;999.90;;;;;;;3.68;100.00;97260.13;5098019;28;20417;-77
2022/11/21 08:30:25;;;;;;;1999.90;999.90;;;;;;;3.66;100.00;97254.19;5091984;28;20516;-76
2022/11/21 08:32:50;;;;;;;1999.90;999.90;;;;;;;3.75;100.00;97252.59;5091016;28;20051;-77
2022/11/21 08:35:16;;;;;;;1999.90;999.90;;;;;;;3.73;100.00;97260.94;5091160;28;20024;-78
2022/11/21 08:37:41;;;;;;;1999.90;999.90;;;;;;;3.95;100.00;97268.00;5090815;28;20073;-76
2022/11/21 08:40:07;;;;;;;1999.90;999.90;;;;;;;4.05;100.00;97279.66;5091203;28;20392;-77
2022/11/21 08:42:32;;;;;;;1999.90;999.90;;;;;;;4.04;100.00;97278.00;5091335;28;20055;-77
2022/11/21 08:44:57;;;;;;;1999.90;999.90;;;;;;;4.02;100.00;97282.06;5090770;28;20077;-76
2022/11/21 08:47:23;;;;;;;1999.90;999.90;;;;;;;3.94;100.00;97280.72;5090654;28;20392;-76
2022/11/21 08:49:48;;;;;;;1999.90;999.90;;;;;;;3.96;100.00;97275.03;5091239;28;20097;-77
2022/11/21 08:52:16;;;;;;;1999.90;999.90;;;;;;;4.01;100.00;97275.84;5090135;28;20070;-76
2022/11/21 08:54:43;;;;;;;1999.90;999.90;;;;;;;3.99;100.00;97274.50;5090751;28;20034;-76
2022/11/21 08:57:08;;;;;;;1999.90;999.90;;;;;;;3.92;100.00;97274.75;5090562;28;20361;-76
2022/11/21 08:59:34;;;;;;;1999.90;999.90;;;;;;;3.89;100.00;97269.91;5072470;28;20039;-75
2022/11/21 09:01:59;;;;;;;1999.90;999.90;;;;;;;3.74;100.00;97256.38;5090550;28;20062;-77
2022/11/21 09:04:25;;;;;;;1999.90;999.90;;;;;;;3.82;100.00;97271.25;5090933;28;22153;-76
2022/11/21 09:06:50;;;;;;;1999.90;999.90;;;;;;;3.85;100.00;97274.25;5090648;28;20567;-76
2022/11/21 09:09:15;;;;;;;1999.90;999.90;;;;;;;3.95;100.00;97274.22;5090667;28;20507;-76
2022/11/21 09:11:41;;;;;;;1999.90;999.90;;;;;;;4.13;100.00;97281.81;5090893;28;20496;-76
2022/11/21 09:19:34;;;;;;;1999.90;999.90;;;;;;;4.35;100.00;97278.84;5091180;28;20034;-77
2022/11/21 09:21:59;;;;;;;1999.90;999.90;;;;;;;4.38;100.00;97272.88;5090778;28;20404;-76
2022/11/21 09:24:24;;;;;;;1999.90;999.90;;;;;;;4.29;100.00;97286.13;5090696;28;20028;-77
2022/11/21 09:26:50;;;;;;;1999.90;999.90;;;;;;;4.30;100.00;97287.75;5090586;28;20056;-75
2022/11/21 09:29:15;;;;;;;1999.90;999.90;;;;;;;4.36;100.00;97275.03;5090500;28;20393;-76
2022/11/21 09:31:41;;;;;;;1999.90;999.90;;;;;;;4.44;100.00;97276.38;5072513;28;20109;-76
2022/11/21 09:34:07;;;;;;;1999.90;999.90;;;;;;;4.63;100.00;97270.13;5090580;28;20040;-76
2022/11/21 09:36:33;;;;;;;1999.90;999.90;;;;;;;4.61;100.00;97264.16;5090459;28;20495;-76
2022/11/21 09:38:58;;;;;;;1999.90;999.90;;;;;;;4.56;100.00;97272.31;5090386;28;20473;-76
2022/11/21 09:44:50;;;;;;;1999.90;999.90;;;;;;;4.68;100.00;97266.59;5090804;28;20077;-76
2022/11/21 09:47:31;;;;;;;1999.90;999.90;;;;;;;4.52;100.00;97268.50;5085081;28;20054;-77
2022/11/21 09:50:05;;;;;;;1999.90;999.90;;;;;;;4.47;100.00;97268.53;5090378;28;20435;-75
2022/11/21 09:52:49;;;;;;;1999.90;999.90;;;;;;;4.38;100.00;97272.88;5090419;28;20071;-77
2022/11/21 09:55:36;;;;;;;1999.90;999.90;;;;;;;4.37;100.00;97276.66;5090452;28;20070;-76
2022/11/21 09:58:05;;;;;;;1999.90;999.90;;;;;;;4.49;100.00;97270.94;5090166;28;20117;-76
2022/11/21 10:00:30;;;;;;;1999.90;999.90;;;;;;;4.45;100.00;97269.91;5090386;28;20020;-74
2022/11/21 10:02:56;;;;;;;1999.90;999.90;;;;;;;4.58;100.00;97277.44;5092460;28;20060;-76
2022/11/21 10:05:35;;;;;;;1999.90;999.90;;;;;;;4.66;100.00;97274.19;5094741;28;20118;-76
2022/11/21 10:08:07;;;;;;;1999.90;999.90;;;;;;;4.70;100.00;97258.97;5093986;28;20048;-75
2022/11/21 10:10:58;;;;;;;1999.90;999.90;;;;;;;4.66;100.00;97249.81;5094013;28;20024;-75
2022/11/21 10:13:56;;;;;;;1999.90;999.90;;;;;;;4.58;100.00;97239.53;5094510;28;20088;-75
2022/11/21 10:16:48;;;;;;;1999.90;999.90;;;;;;;4.66;100.00;97228.16;5059496;28;20044;-75
2022/11/21 10:19:32;;;;;;;1999.90;999.90;;;;;;;4.62;100.00;97229.78;5094045;28;20039;-76
2022/11/21 10:22:18;;;;;;;1999.90;999.90;;;;;;;4.62;100.00;97229.78;5093854;28;20081;-75
2022/11/21 10:24:47;;;;;;;1999.90;999.90;;;;;;;4.58;100.00;97229.50;5075630;28;20081;-75
2022/11/21 10:27:15;;;;;;;1999.90;999.90;;;;;;;4.57;100.00;97233.31;5093800;28;20080;-75
2022/11/21 10:30:17;;;;;;;1999.90;999.90;;;;;;;4.57;100.00;97221.66;5093761;28;20111;-75
2022/11/21 10:32:50;;;;;;;1999.90;999.90;;;;;;;4.58;100.00;97212.44;5059786;28;20067;-74
2022/11/21 10:35:33;;;;;;;1999.90;999.90;;;;;;;4.69;100.00;97222.19;5097392;28;20041;-75
2022/11/21 10:38:01;;;;;;;1999.90;999.90;;;;;;;4.75;100.00;97216.47;5096522;28;20116;-75
2022/11/21 10:40:44;;;;;;;1999.90;999.90;;;;;;;4.87;100.00;97208.03;5094388;28;20024;-75
2022/11/21 10:46:02;;;;;;;1999.90;999.90;;;;;;;4.69;100.00;97219.47;5093252;28;20051;-76
2022/11/21 10:48:28;;;;;;;1999.90;999.90;;;;;;;4.59;100.00;97208.66;5093345;28;20024;-75
2022/11/21 10:51:13;;;;;;;1999.90;999.90;;;;;;;4.64;100.00;97205.94;5093461;28;20032;-75
2022/11/21 10:56:25;;;;;;;1999.90;999.90;;;;;;;5.00;100.00;97218.25;5093275;28;20047;-75
2022/11/21 10:58:54;;;;;;;1999.90;999.90;;;;;;;5.07;100.00;97223.38;5093268;28;20028;-76
2022/11/21 11:01:31;;;;;;;1999.90;999.90;;;;;;;5.03;100.00;97206.88;5093089;28;20039;-76
2022/11/21 11:04:09;;;;;;;1999.90;999.90;;;;;;;4.88;100.00;97208.84;5093160;28;20034;-75
2022/11/21 11:06:39;;;;;;;1999.90;999.90;;;;;;;5.18;100.00;97206.78;5092924;28;20034;-76
2022/11/21 11:09:06;;;;;;;1999.90;999.90;;;;;;;5.17;100.00;97205.16;5092932;28;20040;-75
2022/11/21 11:11:32;;;;;;;1999.90;999.90;;;;;;;5.26;100.00;97199.97;5092987;28;20564;-79
2022/11/21 11:14:01;;;;;;;1999.90;999.90;;;;;;;5.22;100.00;97201.63;5093137;28;20535;-77
2022/11/21 11:16:28;;;;;;;1999.90;999.90;;;;;;;5.07;100.00;97212.56;5092061;28;20036;-75